createdAt,value
2023-03-02T00:00:05.928Z,28.69
2023-03-02T00:04:05.942Z,28.65
2023-03-02T00:08:05.844Z,28.48
2023-03-02T00:12:05.841Z,28.62
2023-03-02T00:16:05.889Z,28.51
2023-03-02T00:20:05.762Z,28.42
2023-03-02T00:24:05.713Z,28.39
2023-03-02T00:28:05.703Z,28.39
2023-03-02T00:32:06.639Z,28.33
2023-03-02T00:36:05.666Z,28.32
2023-03-02T00:40:05.541Z,28.29
2023-03-02T00:44:05.543Z,28.29
2023-03-02T00:48:05.478Z,28.23
2023-03-02T00:52:05.458Z,28.19
2023-03-02T00:56:05.426Z,28.16
2023-03-02T01:00:05.422Z,28.17
2023-03-02T01:04:05.342Z,28.08
2023-03-02T01:08:05.345Z,27.97
2023-03-02T01:12:05.261Z,28.05
2023-03-02T01:16:05.429Z,27.88
2023-03-02T01:20:05.385Z,27.90
2023-03-02T01:24:05.365Z,27.90
2023-03-02T01:28:05.301Z,27.88
2023-03-02T01:32:05.287Z,27.87
2023-03-02T01:36:05.234Z,27.82
2023-03-02T01:40:05.203Z,27.86
2023-03-02T01:44:05.165Z,27.81
2023-03-02T01:48:05.129Z,27.78
2023-03-02T01:52:05.099Z,27.69
2023-03-02T01:56:05.064Z,27.66
2023-03-02T02:00:05.129Z,27.75
2023-03-02T02:04:05.421Z,27.53
2023-03-02T02:08:05.412Z,27.56
2023-03-02T02:12:05.643Z,27.60
2023-03-02T02:16:05.802Z,27.58
2023-03-02T02:20:05.885Z,27.60
2023-03-02T02:24:06.154Z,27.47
2023-03-02T02:28:06.221Z,27.44
2023-03-02T02:32:06.351Z,27.36
2023-03-02T02:36:06.367Z,27.46
2023-03-02T02:40:06.403Z,27.42
2023-03-02T02:44:06.341Z,27.33
2023-03-02T02:48:06.349Z,27.24
2023-03-02T02:52:06.468Z,27.23
2023-03-02T02:56:06.640Z,27.27
2023-03-02T03:00:06.681Z,27.11
2023-03-02T03:04:06.816Z,27.14
2023-03-02T03:08:06.854Z,27.12
2023-03-02T03:12:06.836Z,27.08
2023-03-02T03:16:06.908Z,27.14
2023-03-02T03:20:07.001Z,27.08
2023-03-02T03:24:06.963Z,27.02
2023-03-02T03:28:07.081Z,26.98
2023-03-02T03:32:07.164Z,26.95
2023-03-02T03:36:07.252Z,26.95
2023-03-02T03:40:07.283Z,26.89
2023-03-02T03:44:07.244Z,26.82
2023-03-02T03:48:07.228Z,26.81
2023-03-02T03:52:07.236Z,26.76
2023-03-02T03:56:07.215Z,26.79
2023-03-02T04:00:07.245Z,26.73
2023-03-02T04:04:07.308Z,26.73
2023-03-02T04:08:07.258Z,26.66
2023-03-02T04:12:07.245Z,26.70
2023-03-02T04:16:07.355Z,26.62
2023-03-02T04:20:07.275Z,26.62
2023-03-02T04:24:07.307Z,26.56
2023-03-02T04:28:07.338Z,26.53
2023-03-02T04:32:07.325Z,26.53
2023-03-02T04:36:07.299Z,26.59
2023-03-02T04:40:07.316Z,26.53
2023-03-02T04:44:07.350Z,26.43
2023-03-02T04:48:07.308Z,26.44
2023-03-02T04:52:07.365Z,26.34
2023-03-02T04:56:07.419Z,26.40
2023-03-02T05:00:07.411Z,26.43
2023-03-02T05:04:07.405Z,26.35
2023-03-02T05:08:07.384Z,26.35
2023-03-02T05:12:07.412Z,26.25
2023-03-02T05:16:07.510Z,26.23
2023-03-02T05:20:07.471Z,26.24
2023-03-02T05:24:07.432Z,26.31
2023-03-02T05:28:07.481Z,26.21
2023-03-02T05:32:07.550Z,26.25
2023-03-02T05:36:07.516Z,26.14
2023-03-02T05:40:07.552Z,26.12
2023-03-02T05:44:07.559Z,26.12
2023-03-02T05:48:07.594Z,26.04
2023-03-02T05:52:07.647Z,26.09
2023-03-02T05:56:07.745Z,26.14
2023-03-02T06:00:07.633Z,26.18
2023-03-02T06:04:07.646Z,26.19
2023-03-02T06:08:07.668Z,26.23
2023-03-02T06:12:07.669Z,26.19
2023-03-02T06:16:07.722Z,26.23
2023-03-02T06:20:07.725Z,26.23
2023-03-02T06:24:07.772Z,26.31
2023-03-02T06:28:07.786Z,26.39
2023-03-02T06:32:07.954Z,26.39
2023-03-02T06:36:08.064Z,26.73
2023-03-02T06:40:07.835Z,27.17
2023-03-02T06:44:08.746Z,27.91
2023-03-02T06:48:08.272Z,27.91
2023-03-02T06:52:08.264Z,29.14
2023-03-02T06:56:07.945Z,29.10
2023-03-02T07:00:08.275Z,29.06
2023-03-02T07:04:07.887Z,29.72
2023-03-02T07:08:08.767Z,30.47
2023-03-02T07:12:07.783Z,30.86
2023-03-02T07:16:07.769Z,31.39
2023-03-02T07:20:07.720Z,31.94
2023-03-02T07:24:07.682Z,32.41
2023-03-02T07:28:07.642Z,32.80
2023-03-02T07:32:07.679Z,33.31
2023-03-02T07:36:07.787Z,33.54
2023-03-02T07:40:07.539Z,33.74
2023-03-02T07:44:07.755Z,34.13
2023-03-02T07:48:07.641Z,34.67
2023-03-02T07:52:07.770Z,34.57
2023-03-02T07:56:07.599Z,34.05
2023-03-02T08:00:07.557Z,33.95
2023-03-02T08:04:07.505Z,34.49
2023-03-02T08:08:07.797Z,35.27
2023-03-02T08:12:07.490Z,35.45
2023-03-02T08:16:07.483Z,35.72
2023-03-02T08:20:07.391Z,36.15
2023-03-02T08:24:07.379Z,36.39
2023-03-02T08:28:07.345Z,37.11
2023-03-02T08:32:07.381Z,37.43
2023-03-02T08:36:07.365Z,37.72
2023-03-02T08:40:07.310Z,38.16
2023-03-02T08:44:07.307Z,38.27
2023-03-02T08:48:07.225Z,37.44
2023-03-02T08:52:07.199Z,36.87
2023-03-02T08:56:07.342Z,36.69
2023-03-02T09:00:07.828Z,36.41
2023-03-02T09:04:07.890Z,36.26
2023-03-02T09:08:07.452Z,36.19
2023-03-02T09:12:07.403Z,36.12
2023-03-02T09:16:07.420Z,36.04
2023-03-02T09:20:07.389Z,35.96
2023-03-02T09:24:07.280Z,35.87
2023-03-02T09:28:07.330Z,35.84
2023-03-02T09:32:07.352Z,35.76
2023-03-02T09:36:07.306Z,35.95
2023-03-02T09:40:07.175Z,33.70
2023-03-02T09:44:07.325Z,31.91
2023-03-02T09:48:07.313Z,28.65
2023-03-02T09:52:07.332Z,27.95
2023-03-02T09:56:07.021Z,27.85
2023-03-02T10:00:18.769Z,28.36
2023-03-02T10:04:08.474Z,28.04
2023-03-02T10:08:06.925Z,30.72
2023-03-02T10:12:06.874Z,30.90
2023-03-02T10:16:07.363Z,31.53
2023-03-02T10:20:06.989Z,32.00
2023-03-02T10:24:07.261Z,32.80
2023-03-02T10:28:07.343Z,33.29
2023-03-02T10:32:07.440Z,33.96
2023-03-02T10:36:07.836Z,34.53
2023-03-02T10:40:07.937Z,35.02
2023-03-02T10:44:07.819Z,35.29
2023-03-02T10:48:07.552Z,34.86
2023-03-02T10:52:07.608Z,34.58
2023-03-02T10:56:07.866Z,34.33
2023-03-02T11:00:07.890Z,34.16
2023-03-02T11:04:08.427Z,34.18
2023-03-02T11:08:08.204Z,34.11
2023-03-02T11:12:08.460Z,34.13
2023-03-02T11:16:08.706Z,34.06
2023-03-02T11:20:08.866Z,34.05
2023-03-02T11:24:10.503Z,34.13
2023-03-02T11:28:09.146Z,34.08
2023-03-02T11:32:09.450Z,34.05
2023-03-02T11:36:09.901Z,34.05
2023-03-02T11:40:09.506Z,34.08
2023-03-02T11:44:09.892Z,34.07
2023-03-02T11:48:09.439Z,34.03
2023-03-02T11:52:09.856Z,34.08
2023-03-02T11:56:09.356Z,34.09
2023-03-02T12:00:09.359Z,33.96
2023-03-02T12:04:09.400Z,33.93
2023-03-02T12:08:09.270Z,33.92
2023-03-02T12:12:09.268Z,33.87
2023-03-02T12:16:09.301Z,33.87
2023-03-02T12:20:09.448Z,33.89
2023-03-02T12:24:09.913Z,33.89
2023-03-02T12:28:09.904Z,33.89
2023-03-02T12:32:10.230Z,33.88
2023-03-02T12:36:10.381Z,33.89
2023-03-02T12:40:10.414Z,33.94
2023-03-02T12:44:10.964Z,33.83
2023-03-02T12:48:11.067Z,33.65
2023-03-02T12:52:11.114Z,33.45
2023-03-02T12:56:10.945Z,32.43
2023-03-02T13:00:10.920Z,32.99
2023-03-02T13:04:10.881Z,32.26
2023-03-02T13:08:10.801Z,32.20
2023-03-02T13:12:10.750Z,32.03
2023-03-02T13:16:10.757Z,31.83
2023-03-02T13:20:10.820Z,31.36
2023-03-02T13:24:12.409Z,31.07
2023-03-02T13:28:10.934Z,31.02
2023-03-02T13:32:10.952Z,30.95
2023-03-02T13:36:10.534Z,30.59
2023-03-02T13:40:10.608Z,30.47
2023-03-02T13:44:10.781Z,30.26
2023-03-02T13:48:10.912Z,29.34
2023-03-02T13:52:11.058Z,28.92
2023-03-02T13:56:11.203Z,26.14
2023-03-02T14:00:11.361Z,24.97
2023-03-02T14:04:11.700Z,26.04
2023-03-02T14:08:11.739Z,25.45
2023-03-02T14:12:11.914Z,25.91
2023-03-02T14:16:12.023Z,26.76
2023-03-02T14:20:12.433Z,27.57
2023-03-02T14:24:12.271Z,28.10
2023-03-02T14:28:12.355Z,28.58
2023-03-02T14:32:12.463Z,29.01
2023-03-02T14:36:12.389Z,29.44
2023-03-02T14:40:12.395Z,29.45
2023-03-02T14:44:12.551Z,29.59
2023-03-02T14:48:12.531Z,29.77
2023-03-02T14:52:12.547Z,30.01
2023-03-02T14:56:12.461Z,30.24
2023-03-02T15:00:12.524Z,30.46
2023-03-02T15:04:12.415Z,30.64
2023-03-02T15:08:12.435Z,30.92
2023-03-02T15:12:12.439Z,31.06
2023-03-02T15:16:12.354Z,31.28
2023-03-02T15:20:12.456Z,31.39
2023-03-02T15:24:12.309Z,31.51
2023-03-02T15:28:12.194Z,31.68
2023-03-02T15:32:12.339Z,31.82
2023-03-02T15:36:12.429Z,31.91
2023-03-02T15:40:12.421Z,32.08
2023-03-02T15:44:12.471Z,32.14
2023-03-02T15:48:13.626Z,32.30
2023-03-02T15:52:12.753Z,32.35
2023-03-02T15:56:12.882Z,32.37
2023-03-02T16:00:13.027Z,32.41
2023-03-02T16:04:13.195Z,32.48
2023-03-02T16:08:13.334Z,32.44
2023-03-02T16:12:13.486Z,32.54
2023-03-02T16:16:13.656Z,32.55
2023-03-02T16:20:13.650Z,32.57
2023-03-02T16:24:13.675Z,32.64
2023-03-02T16:28:13.773Z,32.71
2023-03-02T16:32:13.910Z,32.74
2023-03-02T16:36:13.983Z,32.75
2023-03-02T16:40:13.833Z,32.76
2023-03-02T16:44:13.857Z,32.84
2023-03-02T16:48:13.901Z,32.85
2023-03-02T16:52:13.908Z,32.94
2023-03-02T16:56:14.010Z,33.04
2023-03-02T17:00:14.592Z,32.99
2023-03-02T17:04:14.100Z,33.12
2023-03-02T17:08:14.124Z,33.09
2023-03-02T17:12:14.193Z,33.13
2023-03-02T17:16:14.298Z,33.12
2023-03-02T17:24:17.564Z,33.20
2023-03-02T17:28:17.530Z,33.25
2023-03-02T17:32:17.651Z,33.15
2023-03-02T17:36:17.450Z,33.00
2023-03-02T17:40:17.405Z,32.97
2023-03-02T17:44:17.371Z,33.01
2023-03-02T17:48:17.371Z,32.98
2023-03-02T17:52:17.300Z,32.95
2023-03-02T17:56:17.270Z,32.94
2023-03-02T18:00:17.203Z,32.85
2023-03-02T18:04:17.225Z,32.79
2023-03-02T18:08:17.180Z,32.49
2023-03-02T18:12:17.113Z,32.26
2023-03-02T18:16:17.156Z,32.10
2023-03-02T18:20:17.036Z,32.11
2023-03-02T18:24:16.984Z,31.91
2023-03-02T18:28:17.001Z,31.70
2023-03-02T18:32:16.980Z,31.61
2023-03-02T18:36:16.903Z,31.34
2023-03-02T18:40:16.880Z,31.33
2023-03-02T18:44:16.821Z,31.13
2023-03-02T18:48:16.798Z,31.12
2023-03-02T18:52:16.752Z,30.97
2023-03-02T18:56:16.751Z,30.88
2023-03-02T19:00:16.681Z,30.78
2023-03-02T19:04:16.641Z,30.58
2023-03-02T19:08:16.592Z,30.62
2023-03-02T19:12:16.592Z,30.37
2023-03-02T19:16:18.363Z,30.33
2023-03-02T19:20:16.528Z,30.24
2023-03-02T19:24:16.635Z,30.11
2023-03-02T19:28:16.723Z,29.99
2023-03-02T19:32:16.860Z,29.80
2023-03-02T19:36:16.921Z,29.76
2023-03-02T19:40:16.972Z,29.72
2023-03-02T19:44:17.096Z,29.55
2023-03-02T19:48:17.179Z,29.46
2023-03-02T19:52:17.271Z,29.40
2023-03-02T19:56:17.379Z,29.26
2023-03-02T20:00:17.461Z,29.15
2023-03-02T20:04:17.626Z,29.04
2023-03-02T20:08:17.671Z,28.97
2023-03-02T20:12:17.773Z,28.87
2023-03-02T20:16:17.857Z,28.75
2023-03-02T20:20:17.928Z,28.68
2023-03-02T20:24:18.062Z,28.63
2023-03-02T20:28:18.145Z,28.49
2023-03-02T20:32:18.333Z,28.36
2023-03-02T20:36:18.402Z,28.34
2023-03-02T20:40:18.517Z,28.27
2023-03-02T20:44:18.615Z,28.10
2023-03-02T20:48:18.843Z,28.02
2023-03-02T20:52:18.869Z,27.97
2023-03-02T20:56:19.002Z,27.88
2023-03-02T21:00:19.130Z,27.76
2023-03-02T21:04:19.303Z,27.72
2023-03-02T21:08:19.367Z,27.64
2023-03-02T21:12:19.530Z,27.60
2023-03-02T21:16:19.606Z,27.49
2023-03-02T21:20:19.809Z,27.45
2023-03-02T21:24:19.929Z,27.36
2023-03-02T21:28:20.105Z,27.26
2023-03-02T21:32:20.269Z,27.19
2023-03-02T21:36:20.430Z,27.04
2023-03-02T21:40:20.597Z,27.06
2023-03-02T21:44:20.754Z,26.93
2023-03-02T21:48:22.878Z,26.87
2023-03-02T21:52:21.131Z,26.85
2023-03-02T21:56:21.326Z,26.75
2023-03-02T22:00:21.544Z,26.65
2023-03-02T22:04:21.730Z,26.61
2023-03-02T22:08:21.925Z,26.59
2023-03-02T22:12:22.195Z,26.51
2023-03-02T22:16:22.436Z,26.42
2023-03-02T22:20:22.124Z,26.38
2023-03-02T22:24:22.052Z,26.32
2023-03-02T22:28:21.978Z,26.28
2023-03-02T22:32:22.005Z,26.26
2023-03-02T22:36:21.939Z,26.14
2023-03-02T22:40:21.895Z,26.01
2023-03-02T22:44:21.833Z,26.00
2023-03-02T22:48:21.844Z,26.01
2023-03-02T22:52:21.818Z,25.87
2023-03-02T22:56:21.778Z,25.90
2023-03-02T23:00:21.733Z,25.78
2023-03-02T23:04:21.727Z,25.76
2023-03-02T23:08:21.668Z,25.71
2023-03-02T23:12:21.606Z,25.65
2023-03-02T23:16:21.666Z,25.56
2023-03-02T23:20:21.522Z,25.58
2023-03-02T23:24:21.519Z,25.29
2023-03-02T23:28:21.568Z,25.36
2023-03-02T23:32:21.803Z,25.34
2023-03-02T23:36:21.857Z,25.19
2023-03-02T23:40:22.008Z,25.29
2023-03-02T23:44:22.171Z,25.17
2023-03-02T23:48:22.287Z,25.08
2023-03-02T23:52:22.502Z,25.07
2023-03-02T23:56:22.437Z,24.94
